Grande Italia — IBTF — position and weather

sailwx.info

Track history (hours):
 
Tides and Currents Weather Stations Pressure Air Temp Water Temp Dewpoint Dewpoint Depression Visibility Wind Speed Wind Dir Waves Ship Positions

Grande Italia

Last reported at 2017-Oct-17 07:43 UTC. Time now 2017-Oct-17 22:18 UTC.
Position N 32°50' E 035°01'.

Length 177 m; draft 8.1 m.

Type: Cargo ship. MMSI: 247039300.

Date/timePositionNaut miles runAvg speedWind from/ knotsBaromVisibWave heightAir tempDewpointWater temp
2017-Oct-17 07:43N 32°50' E 035°01'4 3.8
2017-Oct-17 06:41N 32°52' E 034°57'314.6
2017-Oct-17 06:31N 32°53' E 034°55'713.5
2017-Oct-17 06:01N 32°49' E 034°48'815.8
2017-Oct-17 05:31N 32°41' E 034°46'815.9
2017-Oct-17 05:01N 32°33' E 034°43'815.7
2017-Oct-17 04:31N 32°26' E 034°41'815.5
2017-Oct-17 04:01N 32°18' E 034°38'815.7
2017-Oct-17 03:31N 32°11' E 034°36'815.5
2017-Oct-17 03:01N 32°03' E 034°33'13 1.1
2017-Oct-16 15:23N 31°51' E 034°38'  
2017-Oct-13 04:46N 39°20' E 019°17'415.0
2017-Oct-13 04:28N 39°24' E 019°14'815.1
2017-Oct-13 03:54N 39°31' E 019°08'1915.4
2017-Oct-13 02:41N 39°47' E 018°56'2315.3
2017-Oct-13 01:13N 40°06' E 018°40'315.1
2017-Oct-13 01:00N 40°09' E 018°38'1215.2
2017-Oct-13 00:13N 40°19' E 018°30'315.1
2017-Oct-13 00:00N 40°22' E 018°28'2315.2
2017-Oct-12 22:29N 40°41' E 018°11'1216.0
2017-Oct-12 21:46N 40°50' E 018°00'1815.5
2017-Oct-12 20:37N 41°02' E 017°44'615.2
2017-Oct-12 20:12N 41°07' E 017°38'415.2
2017-Oct-12 19:57N 41°10' E 017°35'1015.1
2017-Oct-12 19:17N 41°17' E 017°25'715.2
2017-Oct-12 18:48N 41°22' E 017°18'21515.0
2017-Oct-12 04:27N 44°03' E 014°05'1214.7
2017-Oct-12 03:39N 44°13' E 013°55'214.8
2017-Oct-12 03:30N 44°15' E 013°54'714.8
2017-Oct-12 03:00N 44°21' E 013°49'714.7
2017-Oct-12 02:30N 44°27' E 013°43'714.7
2017-Oct-12 02:00N 44°33' E 013°38'714.6
2017-Oct-12 01:30N 44°39' E 013°32'714.7
2017-Oct-12 01:00N 44°45' E 013°26'714.6
2017-Oct-12 00:30N 44°51' E 013°20'714.3
2017-Oct-12 00:00N 44°57' E 013°14'714.5
2017-Oct-11 23:30N 45°03' E 013°08'714.4
2017-Oct-11 23:00N 45°09' E 013°03'714.6
2017-Oct-11 22:30N 45°16' E 013°01'612.7
2017-Oct-11 22:01N 45°23' E 013°03'714.7
2017-Oct-11 21:30N 45°28' E 013°10'714.8
2017-Oct-11 21:00N 45°33' E 013°18'714.7
2017-Oct-11 20:30N 45°36' E 013°27'714.6
2017-Oct-11 20:00N 45°39' E 013°37'612.8
2017-Oct-11 19:31N 45°45' E 013°35'2 4.3
2017-Oct-11 19:01N 45°47' E 013°33'0 0.0
2017-Oct-11 18:30N 45°47' E 013°33'0 0.0
2017-Oct-11 18:00N 45°47' E 013°33'0 0.0
2017-Oct-11 17:30N 45°47' E 013°33'0 0.0
2017-Oct-11 16:57N 45°47' E 013°33'15 0.9
2017-Oct-10 23:58N 45°34' E 013°44'0 0.0
2017-Oct-10 23:16N 45°34' E 013°44'0 0.0
2017-Oct-10 22:58N 45°34' E 013°44'0 0.0
2017-Oct-10 22:28N 45°34' E 013°44'0 0.0
2017-Oct-10 21:58N 45°34' E 013°44'0 0.0
2017-Oct-10 21:28N 45°34' E 013°44'0 0.0
2017-Oct-10 20:58N 45°34' E 013°44'0 0.0
2017-Oct-10 20:28N 45°34' E 013°44'0 0.0
2017-Oct-10 19:58N 45°34' E 013°44'0 0.0
2017-Oct-10 19:19N 45°34' E 013°44'0 0.0
2017-Oct-10 18:58N 45°34' E 013°44'0 0.0
2017-Oct-10 18:28N 45°34' E 013°44'0 0.0
2017-Oct-10 17:52N 45°34' E 013°44'0 0.0
2017-Oct-10 17:28N 45°34' E 013°44'0 0.0
2017-Oct-10 16:58N 45°34' E 013°44'0 0.0
2017-Oct-10 16:28N 45°34' E 013°44'0 0.0
2017-Oct-10 15:58N 45°34' E 013°44'0 0.0
2017-Oct-10 15:25N 45°34' E 013°44'0 0.0
2017-Oct-10 14:55N 45°34' E 013°44'0 0.0
2017-Oct-10 13:58N 45°34' E 013°44'0 0.0
2017-Oct-10 13:28N 45°34' E 013°44'0 0.0
2017-Oct-10 12:52N 45°34' E 013°44'0 0.0
2017-Oct-10 12:10N 45°34' E 013°44'0 0.0
2017-Oct-10 11:55N 45°34' E 013°44'0 0.0
2017-Oct-10 11:25N 45°34' E 013°44'0 0.0
2017-Oct-10 10:58N 45°34' E 013°44'0 0.0
2017-Oct-10 10:28N 45°34' E 013°44'0 0.0
2017-Oct-10 09:58N 45°34' E 013°44'0 0.0
2017-Oct-10 09:22N 45°34' E 013°44'0 0.0
2017-Oct-10 08:58N 45°34' E 013°44'0 0.0
2017-Oct-10 08:19N 45°34' E 013°44'0 0.0
2017-Oct-10 07:58N 45°34' E 013°44'0 0.0
2017-Oct-10 07:25N 45°34' E 013°44'0 0.0
2017-Oct-10 06:58N 45°34' E 013°44'0 0.0
2017-Oct-10 06:28N 45°34' E 013°44'0 0.0
2017-Oct-10 05:52N 45°34' E 013°44'0 0.0
2017-Oct-10 05:22N 45°34' E 013°44'0 0.0
2017-Oct-10 04:58N 45°34' E 013°44'0 0.0
2017-Oct-10 04:28N 45°34' E 013°44'0 0.0
2017-Oct-10 03:52N 45°34' E 013°44'0 0.0
2017-Oct-10 03:28N 45°34' E 013°44'0 0.0
2017-Oct-10 02:58N 45°34' E 013°44'0 0.0
2017-Oct-10 02:30N 45°34' E 013°44'2 3.8
2017-Oct-10 02:00N 45°34' E 013°42'611.9
2017-Oct-10 01:30N 45°35' E 013°33'714.2
2017-Oct-10 01:00N 45°31' E 013°24'714.6
2017-Oct-10 00:30N 45°26' E 013°16'713.2
2017-Oct-10 00:01N 45°21' E 013°11'714.6
2017-Oct-09 23:31N 45°14' E 013°13'713.9
2017-Oct-09 23:00N 45°07' E 013°13'714.6
2017-Oct-09 22:30N 45°01' E 013°07'714.5
2017-Oct-09 22:00N 44°55' E 013°01'714.7
2017-Oct-09 21:30N 44°49' E 012°56'714.9
2017-Oct-09 21:01N 44°43' E 012°50'814.9
2017-Oct-09 20:30N 44°37' E 012°43'914.9
2017-Oct-09 19:56N 44°30' E 012°37'912.7
2017-Oct-09 19:15N 44°30' E 012°24'314.1
2017-Oct-09 19:00N 44°30' E 012°20'3 6.4
2017-Oct-09 18:30N 44°28' E 012°16'1 0.7
2017-Oct-09 16:32N 44°27' E 012°15'0 0.0
2017-Oct-09 16:20N 44°27' E 012°15'0 0.0
2017-Oct-09 15:59N 44°27' E 012°15'0 0.0
2017-Oct-09 15:14N 44°27' E 012°15'0 0.0
2017-Oct-09 14:50N 44°27' E 012°15'0 0.0
2017-Oct-09 14:29N 44°27' E 012°15'0 0.0
2017-Oct-09 11:32N 44°27' E 012°15'0 0.0
2017-Oct-09 11:23N 44°27' E 012°15'3 0.4
2017-Oct-09 05:15N 44°30' E 012°17'3 7.2
2017-Oct-09 04:51N 44°30' E 012°21'5 7.1
2017-Oct-09 04:07N 44°30' E 012°28'0 0.1
2017-Oct-09 00:48N 44°30' E 012°28'0 0.0
2017-Oct-08 22:12N 44°30' E 012°28'0 0.0
2017-Oct-08 21:48N 44°30' E 012°28'0 0.0
2017-Oct-08 16:48N 44°30' E 012°28'0 0.1
2017-Oct-08 16:25N 44°30' E 012°28'2 3.9
2017-Oct-08 16:00N 44°29' E 012°30'1014.5
2017-Oct-08 15:20N 44°25' E 012°43'615.6
2017-Oct-08 14:59N 44°22' E 012°50'715.6
2017-Oct-08 14:30N 44°19' E 012°59'715.0
2017-Oct-08 14:00N 44°17' E 013°09'713.9
2017-Oct-08 13:30N 44°15' E 013°18'  
Track history (hours):
 
Tides and Currents Weather Stations Pressure Air Temp Water Temp Dewpoint Dewpoint Depression Visibility Wind Speed Wind Dir Waves Ship Positions

Grande Italia

Last reported at 2017-Oct-17 07:43 UTC. Time now 2017-Oct-17 22:18 UTC.
Position N 32°50' E 035°01'.

Length 177 m; draft 8.1 m.

Type: Cargo ship. MMSI: 247039300.

Date/timePositionNaut miles runAvg speedWind from/ knotsBaromVisibWave heightAir tempDewpointWater temp
2017-Oct-17 07:43N 32°50' E 035°01'4 3.8
2017-Oct-17 06:41N 32°52' E 034°57'314.6
2017-Oct-17 06:31N 32°53' E 034°55'713.5
2017-Oct-17 06:01N 32°49' E 034°48'815.8
2017-Oct-17 05:31N 32°41' E 034°46'815.9
2017-Oct-17 05:01N 32°33' E 034°43'815.7
2017-Oct-17 04:31N 32°26' E 034°41'815.5
2017-Oct-17 04:01N 32°18' E 034°38'815.7
2017-Oct-17 03:31N 32°11' E 034°36'815.5
2017-Oct-17 03:01N 32°03' E 034°33'13 1.1
2017-Oct-16 15:23N 31°51' E 034°38'  
2017-Oct-13 04:46N 39°20' E 019°17'415.0
2017-Oct-13 04:28N 39°24' E 019°14'815.1
2017-Oct-13 03:54N 39°31' E 019°08'1915.4
2017-Oct-13 02:41N 39°47' E 018°56'2315.3
2017-Oct-13 01:13N 40°06' E 018°40'315.1
2017-Oct-13 01:00N 40°09' E 018°38'1215.2
2017-Oct-13 00:13N 40°19' E 018°30'315.1
2017-Oct-13 00:00N 40°22' E 018°28'2315.2
2017-Oct-12 22:29N 40°41' E 018°11'1216.0
2017-Oct-12 21:46N 40°50' E 018°00'1815.5
2017-Oct-12 20:37N 41°02' E 017°44'615.2
2017-Oct-12 20:12N 41°07' E 017°38'415.2
2017-Oct-12 19:57N 41°10' E 017°35'1015.1
2017-Oct-12 19:17N 41°17' E 017°25'715.2
2017-Oct-12 18:48N 41°22' E 017°18'21515.0
2017-Oct-12 04:27N 44°03' E 014°05'1214.7
2017-Oct-12 03:39N 44°13' E 013°55'214.8
2017-Oct-12 03:30N 44°15' E 013°54'714.8
2017-Oct-12 03:00N 44°21' E 013°49'714.7
2017-Oct-12 02:30N 44°27' E 013°43'714.7
2017-Oct-12 02:00N 44°33' E 013°38'714.6
2017-Oct-12 01:30N 44°39' E 013°32'714.7
2017-Oct-12 01:00N 44°45' E 013°26'714.6
2017-Oct-12 00:30N 44°51' E 013°20'714.3
2017-Oct-12 00:00N 44°57' E 013°14'714.5
2017-Oct-11 23:30N 45°03' E 013°08'714.4
2017-Oct-11 23:00N 45°09' E 013°03'714.6
2017-Oct-11 22:30N 45°16' E 013°01'612.7
2017-Oct-11 22:01N 45°23' E 013°03'714.7
2017-Oct-11 21:30N 45°28' E 013°10'714.8
2017-Oct-11 21:00N 45°33' E 013°18'714.7
2017-Oct-11 20:30N 45°36' E 013°27'714.6
2017-Oct-11 20:00N 45°39' E 013°37'612.8
2017-Oct-11 19:31N 45°45' E 013°35'2 4.3
2017-Oct-11 19:01N 45°47' E 013°33'0 0.0
2017-Oct-11 18:30N 45°47' E 013°33'0 0.0
2017-Oct-11 18:00N 45°47' E 013°33'0 0.0
2017-Oct-11 17:30N 45°47' E 013°33'0 0.0
2017-Oct-11 16:57N 45°47' E 013°33'15 0.9
2017-Oct-10 23:58N 45°34' E 013°44'0 0.0
2017-Oct-10 23:16N 45°34' E 013°44'0 0.0
2017-Oct-10 22:58N 45°34' E 013°44'0 0.0
2017-Oct-10 22:28N 45°34' E 013°44'0 0.0
2017-Oct-10 21:58N 45°34' E 013°44'0 0.0
2017-Oct-10 21:28N 45°34' E 013°44'0 0.0
2017-Oct-10 20:58N 45°34' E 013°44'0 0.0
2017-Oct-10 20:28N 45°34' E 013°44'0 0.0
2017-Oct-10 19:58N 45°34' E 013°44'0 0.0
2017-Oct-10 19:19N 45°34' E 013°44'0 0.0
2017-Oct-10 18:58N 45°34' E 013°44'0 0.0
2017-Oct-10 18:28N 45°34' E 013°44'0 0.0
2017-Oct-10 17:52N 45°34' E 013°44'0 0.0
2017-Oct-10 17:28N 45°34' E 013°44'0 0.0
2017-Oct-10 16:58N 45°34' E 013°44'0 0.0
2017-Oct-10 16:28N 45°34' E 013°44'0 0.0
2017-Oct-10 15:58N 45°34' E 013°44'0 0.0
2017-Oct-10 15:25N 45°34' E 013°44'0 0.0
2017-Oct-10 14:55N 45°34' E 013°44'0 0.0
2017-Oct-10 13:58N 45°34' E 013°44'0 0.0
2017-Oct-10 13:28N 45°34' E 013°44'0 0.0
2017-Oct-10 12:52N 45°34' E 013°44'0 0.0
2017-Oct-10 12:10N 45°34' E 013°44'0 0.0
2017-Oct-10 11:55N 45°34' E 013°44'0 0.0
2017-Oct-10 11:25N 45°34' E 013°44'0 0.0
2017-Oct-10 10:58N 45°34' E 013°44'0 0.0
2017-Oct-10 10:28N 45°34' E 013°44'0 0.0
2017-Oct-10 09:58N 45°34' E 013°44'0 0.0
2017-Oct-10 09:22N 45°34' E 013°44'0 0.0
2017-Oct-10 08:58N 45°34' E 013°44'0 0.0
2017-Oct-10 08:19N 45°34' E 013°44'0 0.0
2017-Oct-10 07:58N 45°34' E 013°44'0 0.0
2017-Oct-10 07:25N 45°34' E 013°44'0 0.0
2017-Oct-10 06:58N 45°34' E 013°44'0 0.0
2017-Oct-10 06:28N 45°34' E 013°44'0 0.0
2017-Oct-10 05:52N 45°34' E 013°44'0 0.0
2017-Oct-10 05:22N 45°34' E 013°44'0 0.0
2017-Oct-10 04:58N 45°34' E 013°44'0 0.0
2017-Oct-10 04:28N 45°34' E 013°44'0 0.0
2017-Oct-10 03:52N 45°34' E 013°44'0 0.0
2017-Oct-10 03:28N 45°34' E 013°44'0 0.0
2017-Oct-10 02:58N 45°34' E 013°44'0 0.0
2017-Oct-10 02:30N 45°34' E 013°44'2 3.8
2017-Oct-10 02:00N 45°34' E 013°42'611.9
2017-Oct-10 01:30N 45°35' E 013°33'714.2
2017-Oct-10 01:00N 45°31' E 013°24'714.6
2017-Oct-10 00:30N 45°26' E 013°16'713.2
2017-Oct-10 00:01N 45°21' E 013°11'714.6
2017-Oct-09 23:31N 45°14' E 013°13'713.9
2017-Oct-09 23:00N 45°07' E 013°13'714.6
2017-Oct-09 22:30N 45°01' E 013°07'714.5
2017-Oct-09 22:00N 44°55' E 013°01'714.7
2017-Oct-09 21:30N 44°49' E 012°56'714.9
2017-Oct-09 21:01N 44°43' E 012°50'814.9
2017-Oct-09 20:30N 44°37' E 012°43'914.9
2017-Oct-09 19:56N 44°30' E 012°37'912.7
2017-Oct-09 19:15N 44°30' E 012°24'314.1
2017-Oct-09 19:00N 44°30' E 012°20'3 6.4
2017-Oct-09 18:30N 44°28' E 012°16'1 0.7
2017-Oct-09 16:32N 44°27' E 012°15'0 0.0
2017-Oct-09 16:20N 44°27' E 012°15'0 0.0
2017-Oct-09 15:59N 44°27' E 012°15'0 0.0
2017-Oct-09 15:14N 44°27' E 012°15'0 0.0
2017-Oct-09 14:50N 44°27' E 012°15'0 0.0
2017-Oct-09 14:29N 44°27' E 012°15'0 0.0
2017-Oct-09 11:32N 44°27' E 012°15'0 0.0
2017-Oct-09 11:23N 44°27' E 012°15'3 0.4
2017-Oct-09 05:15N 44°30' E 012°17'3 7.2
2017-Oct-09 04:51N 44°30' E 012°21'5 7.1
2017-Oct-09 04:07N 44°30' E 012°28'0 0.1
2017-Oct-09 00:48N 44°30' E 012°28'0 0.0
2017-Oct-08 22:12N 44°30' E 012°28'0 0.0
2017-Oct-08 21:48N 44°30' E 012°28'0 0.0
2017-Oct-08 16:48N 44°30' E 012°28'0 0.1
2017-Oct-08 16:25N 44°30' E 012°28'2 3.9
2017-Oct-08 16:00N 44°29' E 012°30'1014.5
2017-Oct-08 15:20N 44°25' E 012°43'615.6
2017-Oct-08 14:59N 44°22' E 012°50'715.6
2017-Oct-08 14:30N 44°19' E 012°59'715.0
2017-Oct-08 14:00N 44°17' E 013°09'713.9
2017-Oct-08 13:30N 44°15' E 013°18'  

Dump ship's entire track history